sensor_id;sensor_type;location;lat;lon;timestamp;P1;P2;P0
73517;PMS5003;61766;60.318;25.044;2023-05-09T00:01:43;5;5;
73517;PMS5003;61766;60.318;25.044;2023-05-09T00:04:08;5;5;
73517;PMS5003;61766;60.318;25.044;2023-05-09T00:06:33;4;4;
73517;PMS5003;61766;60.318;25.044;2023-05-09T00:08:59;6;6;
73517;PMS5003;61766;60.318;25.044;2023-05-09T00:11:24;9;9;
73517;PMS5003;61766;60.318;25.044;2023-05-09T00:13:50;9;8;
73517;PMS5003;61766;60.318;25.044;2023-05-09T00:16:15;6;6;
73517;PMS5003;61766;60.318;25.044;2023-05-09T00:18:40;6;6;
73517;PMS5003;61766;60.318;25.044;2023-05-09T00:21:06;5;4;
73517;PMS5003;61766;60.318;25.044;2023-05-09T00:23:31;7;6;
73517;PMS5003;61766;60.318;25.044;2023-05-09T00:25:57;6;6;
73517;PMS5003;61766;60.318;25.044;2023-05-09T00:28:21;7;6;
73517;PMS5003;61766;60.318;25.044;2023-05-09T00:30:47;6;6;
73517;PMS5003;61766;60.318;25.044;2023-05-09T00:33:12;6;6;
73517;PMS5003;61766;60.318;25.044;2023-05-09T00:35:39;10;9;
73517;PMS5003;61766;60.318;25.044;2023-05-09T00:38:03;8;8;
73517;PMS5003;61766;60.318;25.044;2023-05-09T00:40:28;16;15;
73517;PMS5003;61766;60.318;25.044;2023-05-09T00:42:54;12;11;
73517;PMS5003;61766;60.318;25.044;2023-05-09T00:45:19;17;16;
73517;PMS5003;61766;60.318;25.044;2023-05-09T00:47:45;10;9;
73517;PMS5003;61766;60.318;25.044;2023-05-09T00:50:10;11;10;
73517;PMS5003;61766;60.318;25.044;2023-05-09T00:52:35;12;12;
73517;PMS5003;61766;60.318;25.044;2023-05-09T00:55:00;8;7;
73517;PMS5003;61766;60.318;25.044;2023-05-09T00:57:26;7;7;
73517;PMS5003;61766;60.318;25.044;2023-05-09T00:59:51;11;10;
73517;PMS5003;61766;60.318;25.044;2023-05-09T01:02:16;11;11;
73517;PMS5003;61766;60.318;25.044;2023-05-09T01:04:42;8;8;
73517;PMS5003;61766;60.318;25.044;2023-05-09T01:07:09;14;12;
73517;PMS5003;61766;60.318;25.044;2023-05-09T01:09:35;11;10;
73517;PMS5003;61766;60.318;25.044;2023-05-09T01:12:00;13;12;
73517;PMS5003;61766;60.318;25.044;2023-05-09T01:14:24;9;9;
73517;PMS5003;61766;60.318;25.044;2023-05-09T01:16:50;8;8;
73517;PMS5003;61766;60.318;25.044;2023-05-09T01:19:19;10;8;
73517;PMS5003;61766;60.318;25.044;2023-05-09T01:21:39;8;8;
73517;PMS5003;61766;60.318;25.044;2023-05-09T01:26:34;11;8;
73517;PMS5003;61766;60.318;25.044;2023-05-09T01:31:19;7;7;
73517;PMS5003;61766;60.318;25.044;2023-05-09T01:33:45;9;8;
73517;PMS5003;61766;60.318;25.044;2023-05-09T01:36:11;7;7;
73517;PMS5003;61766;60.318;25.044;2023-05-09T01:38:35;6;6;
73517;PMS5003;61766;60.318;25.044;2023-05-09T01:41:00;8;8;
73517;PMS5003;61766;60.318;25.044;2023-05-09T01:43:26;10;9;
73517;PMS5003;61766;60.318;25.044;2023-05-09T01:45:51;7;7;
73517;PMS5003;61766;60.318;25.044;2023-05-09T01:48:16;8;8;
73517;PMS5003;61766;60.318;25.044;2023-05-09T01:50:42;7;6;
73517;PMS5003;61766;60.318;25.044;2023-05-09T01:53:07;6;6;
73517;PMS5003;61766;60.318;25.044;2023-05-09T01:55:32;7;6;
73517;PMS5003;61766;60.318;25.044;2023-05-09T01:57:57;7;7;
73517;PMS5003;61766;60.318;25.044;2023-05-09T02:00:23;5;5;
73517;PMS5003;61766;60.318;25.044;2023-05-09T02:02:48;8;8;
73517;PMS5003;61766;60.318;25.044;2023-05-09T02:05:14;7;6;
73517;PMS5003;61766;60.318;25.044;2023-05-09T02:07:39;5;5;
73517;PMS5003;61766;60.318;25.044;2023-05-09T02:10:05;6;6;
73517;PMS5003;61766;60.318;25.044;2023-05-09T02:12:29;5;5;
73517;PMS5003;61766;60.318;25.044;2023-05-09T02:14:55;6;6;
73517;PMS5003;61766;60.318;25.044;2023-05-09T02:17:21;7;6;
73517;PMS5003;61766;60.318;25.044;2023-05-09T02:19:46;6;6;
73517;PMS5003;61766;60.318;25.044;2023-05-09T02:22:12;6;6;
73517;PMS5003;61766;60.318;25.044;2023-05-09T02:24:37;10;8;
73517;PMS5003;61766;60.318;25.044;2023-05-09T02:27:02;7;7;
73517;PMS5003;61766;60.318;25.044;2023-05-09T02:29:28;7;7;
73517;PMS5003;61766;60.318;25.044;2023-05-09T02:31:53;7;7;
73517;PMS5003;61766;60.318;25.044;2023-05-09T02:34:18;8;7;
73517;PMS5003;61766;60.318;25.044;2023-05-09T02:36:43;6;6;
73517;PMS5003;61766;60.318;25.044;2023-05-09T02:39:08;9;9;
73517;PMS5003;61766;60.318;25.044;2023-05-09T02:41:34;9;9;
73517;PMS5003;61766;60.318;25.044;2023-05-09T02:43:59;8;8;
73517;PMS5003;61766;60.318;25.044;2023-05-09T02:46:25;8;8;
73517;PMS5003;61766;60.318;25.044;2023-05-09T02:48:50;11;11;
73517;PMS5003;61766;60.318;25.044;2023-05-09T02:51:15;10;10;
73517;PMS5003;61766;60.318;25.044;2023-05-09T02:53:41;10;10;
73517;PMS5003;61766;60.318;25.044;2023-05-09T02:56:06;10;8;
73517;PMS5003;61766;60.318;25.044;2023-05-09T02:58:31;7;7;
73517;PMS5003;61766;60.318;25.044;2023-05-09T03:00:56;8;8;
73517;PMS5003;61766;60.318;25.044;2023-05-09T03:03:22;10;9;
73517;PMS5003;61766;60.318;25.044;2023-05-09T03:05:47;8;8;
73517;PMS5003;61766;60.318;25.044;2023-05-09T03:08:12;8;7;
73517;PMS5003;61766;60.318;25.044;2023-05-09T03:10:38;10;10;
73517;PMS5003;61766;60.318;25.044;2023-05-09T03:13:03;10;10;
73517;PMS5003;61766;60.318;25.044;2023-05-09T03:15:28;9;9;
73517;PMS5003;61766;60.318;25.044;2023-05-09T03:17:53;8;8;
73517;PMS5003;61766;60.318;25.044;2023-05-09T03:20:19;8;8;
73517;PMS5003;61766;60.318;25.044;2023-05-09T03:22:44;9;8;
73517;PMS5003;61766;60.318;25.044;2023-05-09T03:25:10;9;8;
73517;PMS5003;61766;60.318;25.044;2023-05-09T03:27:35;9;9;
73517;PMS5003;61766;60.318;25.044;2023-05-09T03:30:00;10;10;
73517;PMS5003;61766;60.318;25.044;2023-05-09T03:32:25;11;10;
73517;PMS5003;61766;60.318;25.044;2023-05-09T03:34:51;10;9;
73517;PMS5003;61766;60.318;25.044;2023-05-09T03:37:16;8;8;
73517;PMS5003;61766;60.318;25.044;2023-05-09T03:39:42;12;11;
73517;PMS5003;61766;60.318;25.044;2023-05-09T03:42:07;9;9;
73517;PMS5003;61766;60.318;25.044;2023-05-09T03:44:32;11;11;
73517;PMS5003;61766;60.318;25.044;2023-05-09T03:46:57;13;10;
73517;PMS5003;61766;60.318;25.044;2023-05-09T03:49:23;13;12;
73517;PMS5003;61766;60.318;25.044;2023-05-09T03:51:48;12;12;
73517;PMS5003;61766;60.318;25.044;2023-05-09T03:54:14;9;9;
73517;PMS5003;61766;60.318;25.044;2023-05-09T03:56:40;13;11;
73517;PMS5003;61766;60.318;25.044;2023-05-09T03:59:04;11;11;
73517;PMS5003;61766;60.318;25.044;2023-05-09T04:01:30;11;10;
73517;PMS5003;61766;60.318;25.044;2023-05-09T04:03:56;12;11;
73517;PMS5003;61766;60.318;25.044;2023-05-09T04:06:22;10;9;
73517;PMS5003;61766;60.318;25.044;2023-05-09T04:08:47;12;12;
73517;PMS5003;61766;60.318;25.044;2023-05-09T04:11:12;10;9;
73517;PMS5003;61766;60.318;25.044;2023-05-09T04:13:37;8;8;
73517;PMS5003;61766;60.318;25.044;2023-05-09T04:16:03;10;10;
73517;PMS5003;61766;60.318;25.044;2023-05-09T04:18:28;9;9;
73517;PMS5003;61766;60.318;25.044;2023-05-09T04:20:53;11;10;
73517;PMS5003;61766;60.318;25.044;2023-05-09T04:23:19;12;11;
73517;PMS5003;61766;60.318;25.044;2023-05-09T04:25:44;9;9;
73517;PMS5003;61766;60.318;25.044;2023-05-09T04:28:10;14;13;
73517;PMS5003;61766;60.318;25.044;2023-05-09T04:30:35;6;6;
73517;PMS5003;61766;60.318;25.044;2023-05-09T04:33:01;9;9;
73517;PMS5003;61766;60.318;25.044;2023-05-09T04:35:26;10;8;
73517;PMS5003;61766;60.318;25.044;2023-05-09T04:37:52;10;10;
73517;PMS5003;61766;60.318;25.044;2023-05-09T04:40:17;9;9;
73517;PMS5003;61766;60.318;25.044;2023-05-09T04:42:43;9;9;
73517;PMS5003;61766;60.318;25.044;2023-05-09T04:45:08;6;6;
73517;PMS5003;61766;60.318;25.044;2023-05-09T04:47:34;6;6;
73517;PMS5003;61766;60.318;25.044;2023-05-09T04:49:59;8;8;
73517;PMS5003;61766;60.318;25.044;2023-05-09T04:52:24;9;9;
73517;PMS5003;61766;60.318;25.044;2023-05-09T04:54:50;8;8;
73517;PMS5003;61766;60.318;25.044;2023-05-09T04:57:14;7;7;
73517;PMS5003;61766;60.318;25.044;2023-05-09T04:59:39;7;6;
73517;PMS5003;61766;60.318;25.044;2023-05-09T05:02:04;7;7;
73517;PMS5003;61766;60.318;25.044;2023-05-09T05:04:30;6;5;
73517;PMS5003;61766;60.318;25.044;2023-05-09T05:06:55;8;7;
73517;PMS5003;61766;60.318;25.044;2023-05-09T05:09:20;8;7;
73517;PMS5003;61766;60.318;25.044;2023-05-09T05:11:45;6;6;
73517;PMS5003;61766;60.318;25.044;2023-05-09T05:14:11;5;5;
73517;PMS5003;61766;60.318;25.044;2023-05-09T05:16:36;5;4;
73517;PMS5003;61766;60.318;25.044;2023-05-09T05:19:01;6;5;
73517;PMS5003;61766;60.318;25.044;2023-05-09T05:21:26;6;6;
73517;PMS5003;61766;60.318;25.044;2023-05-09T05:23:51;5;4;
73517;PMS5003;61766;60.318;25.044;2023-05-09T05:26:16;5;3;
73517;PMS5003;61766;60.318;25.044;2023-05-09T05:28:41;6;5;
73517;PMS5003;61766;60.318;25.044;2023-05-09T05:31:06;3;3;
73517;PMS5003;61766;60.318;25.044;2023-05-09T05:33:31;4;4;
73517;PMS5003;61766;60.318;25.044;2023-05-09T05:35:56;4;4;
73517;PMS5003;61766;60.318;25.044;2023-05-09T05:38:21;6;5;
73517;PMS5003;61766;60.318;25.044;2023-05-09T05:40:47;10;9;
73517;PMS5003;61766;60.318;25.044;2023-05-09T05:43:12;6;6;
73517;PMS5003;61766;60.318;25.044;2023-05-09T05:45:37;7;7;
73517;PMS5003;61766;60.318;25.044;2023-05-09T05:48:02;7;7;
73517;PMS5003;61766;60.318;25.044;2023-05-09T05:50:27;5;4;
73517;PMS5003;61766;60.318;25.044;2023-05-09T05:52:52;3;3;
73517;PMS5003;61766;60.318;25.044;2023-05-09T05:55:17;6;6;
73517;PMS5003;61766;60.318;25.044;2023-05-09T05:57:42;4;4;
73517;PMS5003;61766;60.318;25.044;2023-05-09T06:00:08;6;5;
73517;PMS5003;61766;60.318;25.044;2023-05-09T06:02:33;6;5;
73517;PMS5003;61766;60.318;25.044;2023-05-09T06:04:58;5;5;
73517;PMS5003;61766;60.318;25.044;2023-05-09T06:07:23;4;4;
73517;PMS5003;61766;60.318;25.044;2023-05-09T06:09:48;7;7;
73517;PMS5003;61766;60.318;25.044;2023-05-09T06:12:13;7;6;
73517;PMS5003;61766;60.318;25.044;2023-05-09T06:14:38;3;3;
73517;PMS5003;61766;60.318;25.044;2023-05-09T06:17:03;5;5;
73517;PMS5003;61766;60.318;25.044;2023-05-09T06:19:28;5;5;
73517;PMS5003;61766;60.318;25.044;2023-05-09T06:21:53;7;6;
73517;PMS5003;61766;60.318;25.044;2023-05-09T06:24:18;6;5;
73517;PMS5003;61766;60.318;25.044;2023-05-09T06:26:44;5;5;
73517;PMS5003;61766;60.318;25.044;2023-05-09T06:29:09;5;5;
73517;PMS5003;61766;60.318;25.044;2023-05-09T06:31:34;4;4;
73517;PMS5003;61766;60.318;25.044;2023-05-09T06:33:59;4;4;
73517;PMS5003;61766;60.318;25.044;2023-05-09T06:36:24;4;4;
73517;PMS5003;61766;60.318;25.044;2023-05-09T06:38:49;3;3;
73517;PMS5003;61766;60.318;25.044;2023-05-09T06:41:14;3;3;
73517;PMS5003;61766;60.318;25.044;2023-05-09T06:43:39;5;5;
73517;PMS5003;61766;60.318;25.044;2023-05-09T06:46:04;4;4;
73517;PMS5003;61766;60.318;25.044;2023-05-09T06:48:29;4;4;
73517;PMS5003;61766;60.318;25.044;2023-05-09T06:50:54;4;4;
73517;PMS5003;61766;60.318;25.044;2023-05-09T06:53:20;4;4;
73517;PMS5003;61766;60.318;25.044;2023-05-09T06:55:46;4;4;
73517;PMS5003;61766;60.318;25.044;2023-05-09T06:58:12;3;3;
73517;PMS5003;61766;60.318;25.044;2023-05-09T07:00:38;5;4;
73517;PMS5003;61766;60.318;25.044;2023-05-09T07:03:04;6;5;
73517;PMS5003;61766;60.318;25.044;2023-05-09T07:05:29;5;5;
73517;PMS5003;61766;60.318;25.044;2023-05-09T07:07:55;4;4;
73517;PMS5003;61766;60.318;25.044;2023-05-09T07:10:21;3;3;
73517;PMS5003;61766;60.318;25.044;2023-05-09T07:12:47;5;5;
73517;PMS5003;61766;60.318;25.044;2023-05-09T07:15:13;4;4;
73517;PMS5003;61766;60.318;25.044;2023-05-09T07:17:38;4;4;
73517;PMS5003;61766;60.318;25.044;2023-05-09T07:20:05;5;5;
73517;PMS5003;61766;60.318;25.044;2023-05-09T07:22:30;5;5;
73517;PMS5003;61766;60.318;25.044;2023-05-09T07:24:56;4;4;
73517;PMS5003;61766;60.318;25.044;2023-05-09T07:27:22;7;6;
73517;PMS5003;61766;60.318;25.044;2023-05-09T07:29:48;4;4;
73517;PMS5003;61766;60.318;25.044;2023-05-09T07:32:13;5;5;
73517;PMS5003;61766;60.318;25.044;2023-05-09T07:34:39;6;4;
73517;PMS5003;61766;60.318;25.044;2023-05-09T07:37:05;5;5;
73517;PMS5003;61766;60.318;25.044;2023-05-09T07:39:31;5;5;
73517;PMS5003;61766;60.318;25.044;2023-05-09T07:41:57;8;6;
73517;PMS5003;61766;60.318;25.044;2023-05-09T07:44:22;6;6;
73517;PMS5003;61766;60.318;25.044;2023-05-09T07:46:48;4;4;
73517;PMS5003;61766;60.318;25.044;2023-05-09T07:49:14;5;5;
73517;PMS5003;61766;60.318;25.044;2023-05-09T07:51:40;4;4;
73517;PMS5003;61766;60.318;25.044;2023-05-09T07:54:05;4;4;
73517;PMS5003;61766;60.318;25.044;2023-05-09T07:56:31;7;6;
73517;PMS5003;61766;60.318;25.044;2023-05-09T07:58:57;5;4;
73517;PMS5003;61766;60.318;25.044;2023-05-09T08:01:23;5;5;
73517;PMS5003;61766;60.318;25.044;2023-05-09T08:03:49;5;5;
73517;PMS5003;61766;60.318;25.044;2023-05-09T08:06:15;3;3;
73517;PMS5003;61766;60.318;25.044;2023-05-09T08:08:40;4;4;
73517;PMS5003;61766;60.318;25.044;2023-05-09T08:11:06;5;4;
73517;PMS5003;61766;60.318;25.044;2023-05-09T08:13:32;7;5;
73517;PMS5003;61766;60.318;25.044;2023-05-09T08:15:59;5;5;
73517;PMS5003;61766;60.318;25.044;2023-05-09T08:18:24;6;6;
73517;PMS5003;61766;60.318;25.044;2023-05-09T08:20:50;3;3;
73517;PMS5003;61766;60.318;25.044;2023-05-09T08:23:15;5;5;
73517;PMS5003;61766;60.318;25.044;2023-05-09T08:25:41;4;4;
73517;PMS5003;61766;60.318;25.044;2023-05-09T08:28:07;5;5;
73517;PMS5003;61766;60.318;25.044;2023-05-09T08:30:33;4;4;
73517;PMS5003;61766;60.318;25.044;2023-05-09T08:32:59;5;5;
73517;PMS5003;61766;60.318;25.044;2023-05-09T08:35:24;7;7;
73517;PMS5003;61766;60.318;25.044;2023-05-09T08:37:51;5;4;
73517;PMS5003;61766;60.318;25.044;2023-05-09T08:40:17;5;4;
73517;PMS5003;61766;60.318;25.044;2023-05-09T08:42:42;5;5;
73517;PMS5003;61766;60.318;25.044;2023-05-09T08:45:09;5;5;
73517;PMS5003;61766;60.318;25.044;2023-05-09T08:47:34;6;6;
73517;PMS5003;61766;60.318;25.044;2023-05-09T08:50:00;5;5;
73517;PMS5003;61766;60.318;25.044;2023-05-09T08:52:25;5;5;
73517;PMS5003;61766;60.318;25.044;2023-05-09T08:54:51;6;6;
73517;PMS5003;61766;60.318;25.044;2023-05-09T08:57:17;7;7;
73517;PMS5003;61766;60.318;25.044;2023-05-09T08:59:42;7;6;
73517;PMS5003;61766;60.318;25.044;2023-05-09T09:02:09;5;4;
73517;PMS5003;61766;60.318;25.044;2023-05-09T09:04:34;6;6;
73517;PMS5003;61766;60.318;25.044;2023-05-09T09:07:00;6;6;
73517;PMS5003;61766;60.318;25.044;2023-05-09T09:09:26;7;6;
73517;PMS5003;61766;60.318;25.044;2023-05-09T09:11:51;7;6;
73517;PMS5003;61766;60.318;25.044;2023-05-09T09:14:18;8;7;
73517;PMS5003;61766;60.318;25.044;2023-05-09T09:16:43;6;6;
73517;PMS5003;61766;60.318;25.044;2023-05-09T09:19:10;6;6;
73517;PMS5003;61766;60.318;25.044;2023-05-09T09:21:34;7;7;
73517;PMS5003;61766;60.318;25.044;2023-05-09T09:24:00;6;6;
73517;PMS5003;61766;60.318;25.044;2023-05-09T09:26:26;4;4;
73517;PMS5003;61766;60.318;25.044;2023-05-09T09:28:51;10;10;
73517;PMS5003;61766;60.318;25.044;2023-05-09T09:31:18;7;7;
73517;PMS5003;61766;60.318;25.044;2023-05-09T09:33:43;8;6;
73517;PMS5003;61766;60.318;25.044;2023-05-09T09:36:09;6;6;
73517;PMS5003;61766;60.318;25.044;2023-05-09T09:38:38;6;6;
73517;PMS5003;61766;60.318;25.044;2023-05-09T09:41:00;6;6;
73517;PMS5003;61766;60.318;25.044;2023-05-09T09:43:26;5;5;
73517;PMS5003;61766;60.318;25.044;2023-05-09T09:45:52;7;6;
73517;PMS5003;61766;60.318;25.044;2023-05-09T09:48:18;6;5;
73517;PMS5003;61766;60.318;25.044;2023-05-09T09:50:46;6;6;
73517;PMS5003;61766;60.318;25.044;2023-05-09T09:53:10;5;5;
73517;PMS5003;61766;60.318;25.044;2023-05-09T09:55:35;6;6;
73517;PMS5003;61766;60.318;25.044;2023-05-09T09:58:01;8;8;
73517;PMS5003;61766;60.318;25.044;2023-05-09T10:00:27;8;7;
73517;PMS5003;61766;60.318;25.044;2023-05-09T10:02:54;6;6;
73517;PMS5003;61766;60.318;25.044;2023-05-09T10:05:19;7;6;
73517;PMS5003;61766;60.318;25.044;2023-05-09T10:07:44;6;6;
73517;PMS5003;61766;60.318;25.044;2023-05-09T10:10:10;6;6;
73517;PMS5003;61766;60.318;25.044;2023-05-09T10:12:36;7;7;
73517;PMS5003;61766;60.318;25.044;2023-05-09T10:15:02;8;7;
73517;PMS5003;61766;60.318;25.044;2023-05-09T10:17:27;7;7;
73517;PMS5003;61766;60.318;25.044;2023-05-09T10:19:53;5;4;
73517;PMS5003;61766;60.318;25.044;2023-05-09T10:22:18;6;6;
73517;PMS5003;61766;60.318;25.044;2023-05-09T10:24:46;6;6;
73517;PMS5003;61766;60.318;25.044;2023-05-09T10:27:10;6;6;
73517;PMS5003;61766;60.318;25.044;2023-05-09T10:29:37;7;5;
73517;PMS5003;61766;60.318;25.044;2023-05-09T10:32:04;5;5;
73517;PMS5003;61766;60.318;25.044;2023-05-09T10:34:28;6;6;
73517;PMS5003;61766;60.318;25.044;2023-05-09T10:36:53;7;7;
73517;PMS5003;61766;60.318;25.044;2023-05-09T10:39:19;7;7;
73517;PMS5003;61766;60.318;25.044;2023-05-09T10:41:45;8;7;
73517;PMS5003;61766;60.318;25.044;2023-05-09T10:44:10;6;6;
73517;PMS5003;61766;60.318;25.044;2023-05-09T10:46:36;6;6;
73517;PMS5003;61766;60.318;25.044;2023-05-09T10:49:02;7;6;
73517;PMS5003;61766;60.318;25.044;2023-05-09T10:51:28;5;5;
73517;PMS5003;61766;60.318;25.044;2023-05-09T10:53:53;8;8;
73517;PMS5003;61766;60.318;25.044;2023-05-09T10:56:23;8;8;
73517;PMS5003;61766;60.318;25.044;2023-05-09T10:58:45;7;6;
73517;PMS5003;61766;60.318;25.044;2023-05-09T11:01:10;7;6;
73517;PMS5003;61766;60.318;25.044;2023-05-09T11:06:02;6;5;
73517;PMS5003;61766;60.318;25.044;2023-05-09T11:08:28;5;5;
73517;PMS5003;61766;60.318;25.044;2023-05-09T11:10:54;7;7;
73517;PMS5003;61766;60.318;25.044;2023-05-09T11:13:21;5;5;
73517;PMS5003;61766;60.318;25.044;2023-05-09T11:18:11;8;8;
73517;PMS5003;61766;60.318;25.044;2023-05-09T11:20:41;6;6;
73517;PMS5003;61766;60.318;25.044;2023-05-09T11:23:03;4;4;
73517;PMS5003;61766;60.318;25.044;2023-05-09T11:25:28;8;7;
73517;PMS5003;61766;60.318;25.044;2023-05-09T11:27:57;8;8;
73517;PMS5003;61766;60.318;25.044;2023-05-09T11:30:20;9;8;
73517;PMS5003;61766;60.318;25.044;2023-05-09T11:32:46;7;7;
73517;PMS5003;61766;60.318;25.044;2023-05-09T11:35:12;7;6;
73517;PMS5003;61766;60.318;25.044;2023-05-09T11:37:41;7;6;
73517;PMS5003;61766;60.318;25.044;2023-05-09T11:40:04;4;4;
73517;PMS5003;61766;60.318;25.044;2023-05-09T11:42:29;6;6;
73517;PMS5003;61766;60.318;25.044;2023-05-09T11:44:55;5;5;
73517;PMS5003;61766;60.318;25.044;2023-05-09T11:47:20;7;7;
73517;PMS5003;61766;60.318;25.044;2023-05-09T11:49:46;6;6;
73517;PMS5003;61766;60.318;25.044;2023-05-09T11:52:12;8;8;
73517;PMS5003;61766;60.318;25.044;2023-05-09T11:54:38;7;7;
73517;PMS5003;61766;60.318;25.044;2023-05-09T11:57:03;7;7;
73517;PMS5003;61766;60.318;25.044;2023-05-09T11:59:29;6;6;
73517;PMS5003;61766;60.318;25.044;2023-05-09T12:01:54;6;6;
73517;PMS5003;61766;60.318;25.044;2023-05-09T12:04:20;6;6;
73517;PMS5003;61766;60.318;25.044;2023-05-09T12:06:46;6;6;
73517;PMS5003;61766;60.318;25.044;2023-05-09T12:09:12;7;6;
73517;PMS5003;61766;60.318;25.044;2023-05-09T12:11:38;4;4;
73517;PMS5003;61766;60.318;25.044;2023-05-09T12:14:03;6;5;
73517;PMS5003;61766;60.318;25.044;2023-05-09T12:16:29;6;6;
73517;PMS5003;61766;60.318;25.044;2023-05-09T12:18:55;5;4;
73517;PMS5003;61766;60.318;25.044;2023-05-09T12:21:21;5;5;
73517;PMS5003;61766;60.318;25.044;2023-05-09T12:23:46;5;4;
73517;PMS5003;61766;60.318;25.044;2023-05-09T12:26:12;4;4;
73517;PMS5003;61766;60.318;25.044;2023-05-09T12:28:38;11;10;
73517;PMS5003;61766;60.318;25.044;2023-05-09T12:31:04;5;5;
73517;PMS5003;61766;60.318;25.044;2023-05-09T12:33:29;6;6;
73517;PMS5003;61766;60.318;25.044;2023-05-09T12:36:01;6;6;
73517;PMS5003;61766;60.318;25.044;2023-05-09T12:38:21;5;5;
73517;PMS5003;61766;60.318;25.044;2023-05-09T12:40:47;5;5;
73517;PMS5003;61766;60.318;25.044;2023-05-09T12:43:13;4;4;
73517;PMS5003;61766;60.318;25.044;2023-05-09T12:45:38;5;4;
73517;PMS5003;61766;60.318;25.044;2023-05-09T12:48:04;5;5;
73517;PMS5003;61766;60.318;25.044;2023-05-09T12:50:30;3;3;
73517;PMS5003;61766;60.318;25.044;2023-05-09T12:52:55;5;5;
73517;PMS5003;61766;60.318;25.044;2023-05-09T12:55:21;5;5;
73517;PMS5003;61766;60.318;25.044;2023-05-09T13:00:13;3;3;
73517;PMS5003;61766;60.318;25.044;2023-05-09T13:02:39;5;5;
73517;PMS5003;61766;60.318;25.044;2023-05-09T13:05:05;4;4;
73517;PMS5003;61766;60.318;25.044;2023-05-09T13:09:56;7;6;
73517;PMS5003;61766;60.318;25.044;2023-05-09T13:12:22;7;7;
73517;PMS5003;61766;60.318;25.044;2023-05-09T13:14:47;6;6;
73517;PMS5003;61766;60.318;25.044;2023-05-09T13:17:13;8;8;
73517;PMS5003;61766;60.318;25.044;2023-05-09T13:19:39;6;6;
73517;PMS5003;61766;60.318;25.044;2023-05-09T13:22:05;5;5;
73517;PMS5003;61766;60.318;25.044;2023-05-09T13:24:31;6;5;
73517;PMS5003;61766;60.318;25.044;2023-05-09T13:26:56;5;5;
73517;PMS5003;61766;60.318;25.044;2023-05-09T13:29:22;4;4;
73517;PMS5003;61766;60.318;25.044;2023-05-09T13:31:48;5;4;
73517;PMS5003;61766;60.318;25.044;2023-05-09T13:34:13;6;5;
73517;PMS5003;61766;60.318;25.044;2023-05-09T13:36:39;6;6;
73517;PMS5003;61766;60.318;25.044;2023-05-09T13:39:05;5;5;
73517;PMS5003;61766;60.318;25.044;2023-05-09T13:41:30;2;2;
73517;PMS5003;61766;60.318;25.044;2023-05-09T13:43:56;6;6;
73517;PMS5003;61766;60.318;25.044;2023-05-09T13:46:22;5;5;
73517;PMS5003;61766;60.318;25.044;2023-05-09T13:48:48;3;3;
73517;PMS5003;61766;60.318;25.044;2023-05-09T13:51:13;5;5;
73517;PMS5003;61766;60.318;25.044;2023-05-09T13:53:39;6;5;
73517;PMS5003;61766;60.318;25.044;2023-05-09T13:56:05;4;4;
73517;PMS5003;61766;60.318;25.044;2023-05-09T13:58:31;6;5;
73517;PMS5003;61766;60.318;25.044;2023-05-09T14:00:56;5;5;
73517;PMS5003;61766;60.318;25.044;2023-05-09T14:03:22;4;4;
73517;PMS5003;61766;60.318;25.044;2023-05-09T14:05:48;5;5;
73517;PMS5003;61766;60.318;25.044;2023-05-09T14:08:14;5;5;
73517;PMS5003;61766;60.318;25.044;2023-05-09T14:10:39;4;4;
73517;PMS5003;61766;60.318;25.044;2023-05-09T14:13:05;6;6;
73517;PMS5003;61766;60.318;25.044;2023-05-09T14:15:31;4;3;
73517;PMS5003;61766;60.318;25.044;2023-05-09T14:17:57;2;2;
73517;PMS5003;61766;60.318;25.044;2023-05-09T14:20:23;4;4;
73517;PMS5003;61766;60.318;25.044;2023-05-09T14:22:48;5;5;
73517;PMS5003;61766;60.318;25.044;2023-05-09T14:25:14;5;5;
73517;PMS5003;61766;60.318;25.044;2023-05-09T14:27:40;5;5;
73517;PMS5003;61766;60.318;25.044;2023-05-09T14:30:06;5;5;
73517;PMS5003;61766;60.318;25.044;2023-05-09T14:32:31;4;4;
73517;PMS5003;61766;60.318;25.044;2023-05-09T14:34:57;6;6;
73517;PMS5003;61766;60.318;25.044;2023-05-09T14:37:23;5;5;
73517;PMS5003;61766;60.318;25.044;2023-05-09T14:39:48;3;3;
73517;PMS5003;61766;60.318;25.044;2023-05-09T14:42:14;4;4;
73517;PMS5003;61766;60.318;25.044;2023-05-09T14:44:40;5;5;
73517;PMS5003;61766;60.318;25.044;2023-05-09T14:47:06;5;5;
73517;PMS5003;61766;60.318;25.044;2023-05-09T14:49:32;7;5;
73517;PMS5003;61766;60.318;25.044;2023-05-09T14:51:57;5;4;
73517;PMS5003;61766;60.318;25.044;2023-05-09T14:54:23;4;4;
73517;PMS5003;61766;60.318;25.044;2023-05-09T14:56:49;4;4;
73517;PMS5003;61766;60.318;25.044;2023-05-09T14:59:15;3;3;
73517;PMS5003;61766;60.318;25.044;2023-05-09T15:01:41;4;4;
73517;PMS5003;61766;60.318;25.044;2023-05-09T15:04:06;4;4;
73517;PMS5003;61766;60.318;25.044;2023-05-09T15:06:32;5;5;
73517;PMS5003;61766;60.318;25.044;2023-05-09T15:08:58;5;5;
73517;PMS5003;61766;60.318;25.044;2023-05-09T15:11:24;3;3;
73517;PMS5003;61766;60.318;25.044;2023-05-09T15:13:51;6;6;
73517;PMS5003;61766;60.318;25.044;2023-05-09T15:16:15;4;4;
73517;PMS5003;61766;60.318;25.044;2023-05-09T15:18:41;5;4;
73517;PMS5003;61766;60.318;25.044;2023-05-09T15:21:07;5;5;
73517;PMS5003;61766;60.318;25.044;2023-05-09T15:23:33;7;7;
73517;PMS5003;61766;60.318;25.044;2023-05-09T15:25:59;5;5;
73517;PMS5003;61766;60.318;25.044;2023-05-09T15:28:24;4;4;
73517;PMS5003;61766;60.318;25.044;2023-05-09T15:30:50;3;3;
73517;PMS5003;61766;60.318;25.044;2023-05-09T15:33:16;3;3;
73517;PMS5003;61766;60.318;25.044;2023-05-09T15:35:42;5;5;
73517;PMS5003;61766;60.318;25.044;2023-05-09T15:38:08;7;7;
73517;PMS5003;61766;60.318;25.044;2023-05-09T15:40:33;5;5;
73517;PMS5003;61766;60.318;25.044;2023-05-09T15:42:59;5;5;
73517;PMS5003;61766;60.318;25.044;2023-05-09T15:45:25;6;6;
73517;PMS5003;61766;60.318;25.044;2023-05-09T15:47:51;6;6;
73517;PMS5003;61766;60.318;25.044;2023-05-09T15:50:17;6;6;
73517;PMS5003;61766;60.318;25.044;2023-05-09T15:52:42;5;5;
73517;PMS5003;61766;60.318;25.044;2023-05-09T15:55:09;5;5;
73517;PMS5003;61766;60.318;25.044;2023-05-09T15:57:34;5;5;
73517;PMS5003;61766;60.318;25.044;2023-05-09T16:00:00;6;6;
73517;PMS5003;61766;60.318;25.044;2023-05-09T16:02:26;6;6;
73517;PMS5003;61766;60.318;25.044;2023-05-09T16:04:51;6;6;
73517;PMS5003;61766;60.318;25.044;2023-05-09T16:07:17;6;5;
73517;PMS5003;61766;60.318;25.044;2023-05-09T16:09:43;4;4;
73517;PMS5003;61766;60.318;25.044;2023-05-09T16:12:09;5;5;
73517;PMS5003;61766;60.318;25.044;2023-05-09T16:14:35;4;4;
73517;PMS5003;61766;60.318;25.044;2023-05-09T16:17:00;2;2;
73517;PMS5003;61766;60.318;25.044;2023-05-09T16:19:26;5;4;
73517;PMS5003;61766;60.318;25.044;2023-05-09T16:21:52;4;4;
73517;PMS5003;61766;60.318;25.044;2023-05-09T16:24:18;6;5;
73517;PMS5003;61766;60.318;25.044;2023-05-09T16:26:44;6;5;
73517;PMS5003;61766;60.318;25.044;2023-05-09T16:29:09;4;4;
73517;PMS5003;61766;60.318;25.044;2023-05-09T16:31:35;6;5;
73517;PMS5003;61766;60.318;25.044;2023-05-09T16:34:01;7;6;